MSC459 HECA-OEJN
Flight info
| Callsign | MSC459 |
|---|---|
| Flight time | N/A |
| Altitude | 39000 |
| Route | HECA/05R CVO A727 NABED T55 DEDLU M999 MUVOL |
| Aircraft | A320/M-SDE3FGHIRWY/LB1 |
Departure
| Time | N/A |
|---|---|
| Airport | Cairo International Airport (HECA) |
Arrival
| Time | 2026-04-29 18:07 |
|---|---|
| Airport | King Abdulaziz International Airport (OEJN) |
| Time | Latitude | Longitude | Altitude | Speed | Heading |
|---|---|---|---|---|---|
| 2026-04-29 17:30 | 23.48601 | 36.80046 | 38958 ft | 503 kts | 143° |
| 2026-04-29 17:30 | 23.46061 | 36.82680 | 38961 ft | 503 kts | 143° |
| 2026-04-29 17:31 | 23.40986 | 36.87941 | 38964 ft | 503 kts | 143° |
| 2026-04-29 17:31 | 23.35906 | 36.93198 | 38964 ft | 502 kts | 143° |
| 2026-04-29 17:32 | 23.30846 | 36.98431 | 38958 ft | 502 kts | 143° |
| 2026-04-29 17:32 | 23.25801 | 37.03639 | 38956 ft | 501 kts | 143° |
| 2026-04-29 17:33 | 23.20753 | 37.08851 | 38959 ft | 500 kts | 143° |
| 2026-04-29 17:33 | 23.15706 | 37.14059 | 38963 ft | 500 kts | 143° |
| 2026-04-29 17:34 | 23.10648 | 37.19260 | 38957 ft | 499 kts | 143° |
| 2026-04-29 17:34 | 23.05599 | 37.24451 | 38954 ft | 499 kts | 143° |
| 2026-04-29 17:35 | 22.98892 | 37.31351 | 38964 ft | 498 kts | 143° |
| 2026-04-29 17:36 | 22.93855 | 37.36511 | 38948 ft | 497 kts | 143° |
| 2026-04-29 17:36 | 22.88830 | 37.41653 | 38958 ft | 496 kts | 143° |
| 2026-04-29 17:37 | 22.83845 | 37.46759 | 38960 ft | 495 kts | 143° |
| 2026-04-29 17:37 | 22.78806 | 37.51914 | 38960 ft | 494 kts | 143° |
| 2026-04-29 17:38 | 22.74097 | 37.57295 | 38954 ft | 501 kts | 131° |
| 2026-04-29 17:38 | 22.70055 | 37.63450 | 38958 ft | 501 kts | 130° |
| 2026-04-29 17:39 | 22.66021 | 37.69613 | 38958 ft | 501 kts | 130° |
| 2026-04-29 17:39 | 22.61994 | 37.75774 | 38957 ft | 499 kts | 130° |
| 2026-04-29 17:40 | 22.57970 | 37.81906 | 38952 ft | 498 kts | 130° |
| 2026-04-29 17:40 | 22.55987 | 37.84924 | 38725 ft | 496 kts | 130° |
| 2026-04-29 17:40 | 22.53987 | 37.87965 | 38492 ft | 496 kts | 130° |
| 2026-04-29 17:40 | 22.51984 | 37.91003 | 38229 ft | 496 kts | 131° |
| 2026-04-29 17:41 | 22.49976 | 37.94045 | 37964 ft | 497 kts | 131° |
| 2026-04-29 17:41 | 22.47956 | 37.97108 | 37694 ft | 498 kts | 131° |
| 2026-04-29 17:41 | 22.45947 | 38.00157 | 37435 ft | 497 kts | 131° |
| 2026-04-29 17:41 | 22.43940 | 38.03203 | 37177 ft | 498 kts | 131° |
| 2026-04-29 17:42 | 22.41953 | 38.06219 | 36933 ft | 499 kts | 131° |
| 2026-04-29 17:42 | 22.39930 | 38.09284 | 36688 ft | 500 kts | 131° |
| 2026-04-29 17:42 | 22.37901 | 38.12359 | 36443 ft | 501 kts | 131° |
| 2026-04-29 17:42 | 22.35878 | 38.15426 | 36200 ft | 503 kts | 131° |
| 2026-04-29 17:43 | 22.33842 | 38.18508 | 35955 ft | 504 kts | 131° |
| 2026-04-29 17:43 | 22.31798 | 38.21596 | 35698 ft | 504 kts | 131° |
| 2026-04-29 17:43 | 22.29754 | 38.24690 | 35457 ft | 505 kts | 131° |
| 2026-04-29 17:43 | 22.27713 | 38.27778 | 35232 ft | 506 kts | 131° |
| 2026-04-29 17:44 | 22.25660 | 38.30872 | 35009 ft | 507 kts | 131° |
| 2026-04-29 17:44 | 22.23594 | 38.33971 | 34773 ft | 509 kts | 131° |
| 2026-04-29 17:44 | 22.21516 | 38.37085 | 34543 ft | 510 kts | 131° |
| 2026-04-29 17:44 | 22.19432 | 38.40180 | 34315 ft | 511 kts | 132° |
| 2026-04-29 17:45 | 22.17289 | 38.43245 | 34089 ft | 511 kts | 133° |
| 2026-04-29 17:45 | 22.15121 | 38.46255 | 33848 ft | 512 kts | 134° |
| 2026-04-29 17:45 | 22.12907 | 38.49274 | 33586 ft | 512 kts | 134° |
| 2026-04-29 17:45 | 22.10684 | 38.52292 | 33349 ft | 513 kts | 134° |
| 2026-04-29 17:46 | 22.08439 | 38.55277 | 33084 ft | 506 kts | 139° |
| 2026-04-29 17:46 | 22.05845 | 38.57588 | 32824 ft | 474 kts | 158° |
| 2026-04-29 17:46 | 22.02923 | 38.58904 | 32576 ft | 440 kts | 175° |
| 2026-04-29 17:46 | 21.99982 | 38.59269 | 31864 ft | 409 kts | 192° |
| 2026-04-29 17:47 | 21.97267 | 38.58758 | 31042 ft | 386 kts | 207° |
| 2026-04-29 17:47 | 21.94878 | 38.57592 | 30215 ft | 371 kts | 216° |
| 2026-04-29 17:47 | 21.92514 | 38.56460 | 29266 ft | 377 kts | 205° |
| 2026-04-29 17:47 | 21.90004 | 38.55647 | 28351 ft | 378 kts | 203° |
| 2026-04-29 17:48 | 21.87463 | 38.54875 | 27851 ft | 376 kts | 202° |
| 2026-04-29 17:48 | 21.84920 | 38.54208 | 27330 ft | 379 kts | 195° |
| 2026-04-29 17:48 | 21.82297 | 38.54055 | 26862 ft | 387 kts | 183° |
| 2026-04-29 17:48 | 21.79650 | 38.54675 | 26407 ft | 399 kts | 163° |
| 2026-04-29 17:49 | 21.77229 | 38.56230 | 25954 ft | 408 kts | 145° |
| 2026-04-29 17:49 | 21.75323 | 38.58514 | 25528 ft | 415 kts | 126° |
| 2026-04-29 17:49 | 21.74157 | 38.61344 | 25114 ft | 417 kts | 105° |
| 2026-04-29 17:49 | 21.73827 | 38.64436 | 24704 ft | 414 kts | 92° |
| 2026-04-29 17:50 | 21.73758 | 38.67513 | 24298 ft | 410 kts | 92° |
| 2026-04-29 17:50 | 21.73698 | 38.70555 | 23787 ft | 402 kts | 91° |
| 2026-04-29 17:50 | 21.73641 | 38.73532 | 23043 ft | 395 kts | 91° |
| 2026-04-29 17:50 | 21.73584 | 38.76473 | 22234 ft | 389 kts | 91° |
| 2026-04-29 17:51 | 21.73526 | 38.79371 | 21447 ft | 385 kts | 91° |
| 2026-04-29 17:51 | 21.73465 | 38.82195 | 20686 ft | 381 kts | 90° |
| 2026-04-29 17:51 | 21.73402 | 38.85035 | 19937 ft | 377 kts | 90° |
| 2026-04-29 17:51 | 21.73337 | 38.87843 | 19219 ft | 373 kts | 90° |
| 2026-04-29 17:52 | 21.73270 | 38.90644 | 18511 ft | 369 kts | 89° |
| 2026-04-29 17:52 | 21.73226 | 38.92499 | 18035 ft | 366 kts | 89° |
| 2026-04-29 17:52 | 21.73141 | 38.96090 | 17055 ft | 360 kts | 90° |
| 2026-04-29 17:52 | 21.73079 | 38.98768 | 16364 ft | 355 kts | 90° |
| 2026-04-29 17:53 | 21.73019 | 39.01401 | 15699 ft | 350 kts | 90° |
| 2026-04-29 17:53 | 21.72960 | 39.04016 | 15047 ft | 346 kts | 91° |
| 2026-04-29 17:53 | 21.72902 | 39.06610 | 14409 ft | 341 kts | 91° |
| 2026-04-29 17:53 | 21.72843 | 39.09142 | 13792 ft | 337 kts | 92° |
| 2026-04-29 17:54 | 21.72783 | 39.11641 | 13100 ft | 333 kts | 92° |
| 2026-04-29 17:54 | 21.72723 | 39.14128 | 12405 ft | 329 kts | 92° |
| 2026-04-29 17:54 | 21.72663 | 39.16586 | 11727 ft | 325 kts | 92° |
| 2026-04-29 17:54 | 21.72604 | 39.19007 | 11055 ft | 321 kts | 92° |
| 2026-04-29 17:55 | 21.72534 | 39.21387 | 10406 ft | 316 kts | 96° |
| 2026-04-29 17:55 | 21.71995 | 39.23653 | 9777 ft | 311 kts | 118° |
| 2026-04-29 17:55 | 21.70753 | 39.25514 | 9389 ft | 304 kts | 139° |
| 2026-04-29 17:55 | 21.69034 | 39.26779 | 8976 ft | 297 kts | 159° |
| 2026-04-29 17:56 | 21.67129 | 39.27559 | 8526 ft | 295 kts | 162° |
| 2026-04-29 17:56 | 21.65205 | 39.28319 | 8133 ft | 292 kts | 162° |
| 2026-04-29 17:56 | 21.63306 | 39.29066 | 7720 ft | 290 kts | 162° |
| 2026-04-29 17:56 | 21.61416 | 39.29808 | 7202 ft | 285 kts | 163° |
| 2026-04-29 17:57 | 21.59573 | 39.30528 | 6502 ft | 283 kts | 163° |
| 2026-04-29 17:57 | 21.57711 | 39.31254 | 5953 ft | 285 kts | 163° |
| 2026-04-29 17:57 | 21.55861 | 39.31978 | 5618 ft | 279 kts | 162° |
| 2026-04-29 17:57 | 21.54639 | 39.32456 | 5367 ft | 277 kts | 163° |
| 2026-04-29 17:58 | 21.52293 | 39.33376 | 5079 ft | 255 kts | 162° |
| 2026-04-29 17:58 | 21.50700 | 39.34005 | 4952 ft | 233 kts | 162° |
| 2026-04-29 17:58 | 21.49186 | 39.34600 | 4575 ft | 230 kts | 162° |
| 2026-04-29 17:58 | 21.47667 | 39.35194 | 4522 ft | 234 kts | 162° |
| 2026-04-29 17:59 | 21.46141 | 39.35790 | 4533 ft | 232 kts | 163° |
| 2026-04-29 17:59 | 21.44633 | 39.36318 | 4532 ft | 229 kts | 175° |
| 2026-04-29 17:59 | 21.43082 | 39.36121 | 4522 ft | 222 kts | 207° |
| 2026-04-29 17:59 | 21.41945 | 39.35108 | 4248 ft | 215 kts | 241° |
| 2026-04-29 18:00 | 21.41553 | 39.33599 | 3889 ft | 211 kts | 274° |
| 2026-04-29 18:00 | 21.41774 | 39.32036 | 3567 ft | 213 kts | 282° |
| 2026-04-29 18:00 | 21.42094 | 39.30490 | 3271 ft | 212 kts | 284° |
| 2026-04-29 18:00 | 21.42477 | 39.28962 | 3057 ft | 210 kts | 295° |
| 2026-04-29 18:01 | 21.43286 | 39.27671 | 3019 ft | 207 kts | 316° |
| 2026-04-29 18:01 | 21.44416 | 39.26817 | 3015 ft | 193 kts | 335° |
| 2026-04-29 18:01 | 21.45651 | 39.26317 | 3016 ft | 186 kts | 338° |
| 2026-04-29 18:01 | 21.46860 | 39.25843 | 3016 ft | 183 kts | 338° |
| 2026-04-29 18:02 | 21.48056 | 39.25372 | 3016 ft | 183 kts | 338° |
| 2026-04-29 18:02 | 21.49237 | 39.24908 | 3015 ft | 183 kts | 338° |
| 2026-04-29 18:02 | 21.50432 | 39.24438 | 3016 ft | 181 kts | 338° |
| 2026-04-29 18:02 | 21.51568 | 39.23992 | 3012 ft | 168 kts | 337° |
| 2026-04-29 18:03 | 21.52645 | 39.23569 | 2827 ft | 157 kts | 338° |
| 2026-04-29 18:03 | 21.53603 | 39.23192 | 2661 ft | 140 kts | 339° |
| 2026-04-29 18:03 | 21.54493 | 39.22841 | 2488 ft | 131 kts | 340° |
| 2026-04-29 18:03 | 21.55331 | 39.22510 | 2327 ft | 128 kts | 340° |
| 2026-04-29 18:04 | 21.56165 | 39.22182 | 2170 ft | 127 kts | 339° |
| 2026-04-29 18:04 | 21.57001 | 39.21853 | 2003 ft | 127 kts | 339° |
| 2026-04-29 18:04 | 21.57843 | 39.21522 | 1829 ft | 129 kts | 341° |
| 2026-04-29 18:04 | 21.58664 | 39.21198 | 1667 ft | 128 kts | 340° |
| 2026-04-29 18:05 | 21.59513 | 39.20864 | 1496 ft | 127 kts | 340° |
| 2026-04-29 18:05 | 21.60327 | 39.20543 | 1335 ft | 125 kts | 340° |
| 2026-04-29 18:05 | 21.61155 | 39.20217 | 1179 ft | 125 kts | 340° |
| 2026-04-29 18:05 | 21.61971 | 39.19898 | 1027 ft | 125 kts | 340° |
| 2026-04-29 18:06 | 21.62791 | 39.19577 | 895 ft | 128 kts | 340° |
| 2026-04-29 18:06 | 21.63619 | 39.19250 | 693 ft | 126 kts | 341° |
| 2026-04-29 18:06 | 21.64435 | 39.18924 | 550 ft | 124 kts | 340° |
| 2026-04-29 18:06 | 21.65265 | 39.18591 | 410 ft | 126 kts | 339° |
| 2026-04-29 18:07 | 21.65806 | 39.18379 | 294 ft | 127 kts | 340° |
| 2026-04-29 18:07 | 21.66905 | 39.17953 | 59 ft | 124 kts | 341° |
| 2026-04-29 18:07 | 21.67651 | 39.17658 | 34 ft | 93 kts | 339° |
| 2026-04-29 18:07 | 21.68092 | 39.17483 | 29 ft | 43 kts | 340° |
| 2026-04-29 18:08 | 21.68222 | 39.17421 | 28 ft | 14 kts | 326° |
| 2026-04-29 18:08 | 21.68278 | 39.17378 | 28 ft | 16 kts | 324° |
| 2026-04-29 18:08 | 21.68346 | 39.17300 | 27 ft | 14 kts | 312° |
| 2026-04-29 18:08 | 21.68401 | 39.17232 | 25 ft | 2 kts | 306° |
| 2026-04-29 18:09 | 21.68404 | 39.17227 | 25 ft | 0 kts | 306° |
| 2026-04-29 18:09 | 21.68411 | 39.17217 | 26 ft | 9 kts | 306° |
| 2026-04-29 18:10 | 21.68404 | 39.17137 | 27 ft | 12 kts | 213° |
| 2026-04-29 18:10 | 21.68329 | 39.17150 | 27 ft | 11 kts | 160° |
| 2026-04-29 18:10 | 21.68258 | 39.17178 | 28 ft | 10 kts | 160° |
| 2026-04-29 18:10 | 21.68197 | 39.17202 | 30 ft | 9 kts | 160° |
| 2026-04-29 18:11 | 21.68147 | 39.17221 | 31 ft | 7 kts | 160° |
| 2026-04-29 18:11 | 21.68109 | 39.17236 | 31 ft | 6 kts | 160° |
| 2026-04-29 18:11 | 21.68070 | 39.17250 | 31 ft | 6 kts | 161° |
| 2026-04-29 18:11 | 21.68016 | 39.17271 | 31 ft | 12 kts | 160° |
| 2026-04-29 18:12 | 21.67939 | 39.17301 | 31 ft | 12 kts | 161° |
| 2026-04-29 18:12 | 21.67899 | 39.17295 | 30 ft | 2 kts | 207° |
| 2026-04-29 18:12 | 21.67886 | 39.17283 | 30 ft | 2 kts | 227° |
| 2026-04-29 18:12 | 21.67854 | 39.17253 | 30 ft | 11 kts | 205° |
| 2026-04-29 18:13 | 21.67787 | 39.17263 | 30 ft | 10 kts | 159° |
| 2026-04-29 18:13 | 21.67725 | 39.17288 | 31 ft | 9 kts | 160° |
| 2026-04-29 18:13 | 21.67667 | 39.17311 | 31 ft | 9 kts | 160° |
| 2026-04-29 18:13 | 21.67611 | 39.17332 | 30 ft | 8 kts | 160° |
| 2026-04-29 18:14 | 21.67558 | 39.17352 | 31 ft | 8 kts | 160° |
| 2026-04-29 18:14 | 21.67508 | 39.17372 | 31 ft | 7 kts | 159° |
| 2026-04-29 18:14 | 21.67460 | 39.17391 | 30 ft | 7 kts | 160° |
| 2026-04-29 18:14 | 21.67415 | 39.17409 | 30 ft | 7 kts | 160° |
| 2026-04-29 18:15 | 21.67372 | 39.17426 | 30 ft | 6 kts | 160° |
| 2026-04-29 18:15 | 21.67330 | 39.17442 | 30 ft | 6 kts | 160° |
| 2026-04-29 18:15 | 21.67290 | 39.17457 | 30 ft | 6 kts | 161° |
| 2026-04-29 18:15 | 21.67225 | 39.17484 | 30 ft | 11 kts | 159° |
| 2026-04-29 18:16 | 21.67152 | 39.17513 | 30 ft | 11 kts | 160° |
| 2026-04-29 18:16 | 21.67087 | 39.17538 | 30 ft | 9 kts | 159° |
| 2026-04-29 18:16 | 21.67037 | 39.17557 | 30 ft | 7 kts | 163° |
| 2026-04-29 18:16 | 21.66990 | 39.17560 | 30 ft | 7 kts | 186° |
| 2026-04-29 18:17 | 21.66953 | 39.17537 | 30 ft | 6 kts | 227° |
| 2026-04-29 18:17 | 21.66936 | 39.17498 | 30 ft | 6 kts | 249° |
| 2026-04-29 18:17 | 21.66922 | 39.17461 | 30 ft | 5 kts | 249° |
| 2026-04-29 18:17 | 21.66910 | 39.17424 | 30 ft | 5 kts | 250° |
| 2026-04-29 18:18 | 21.66898 | 39.17389 | 30 ft | 5 kts | 250° |
| 2026-04-29 18:18 | 21.66889 | 39.17362 | 30 ft | 0 kts | 250° |
| 2026-04-29 18:18 | 21.66884 | 39.17349 | 30 ft | 8 kts | 250° |
| 2026-04-29 18:18 | 21.66874 | 39.17325 | 30 ft | 4 kts | 243° |
| 2026-04-29 18:19 | 21.66872 | 39.17321 | 30 ft | 2 kts | 243° |
| 2026-04-29 18:19 | 21.66861 | 39.17286 | 31 ft | 3 kts | 266° |
| 2026-04-29 18:19 | 21.66859 | 39.17271 | 30 ft | 3 kts | 264° |
| 2026-04-29 18:19 | 21.66857 | 39.17254 | 30 ft | 3 kts | 262° |
| 2026-04-29 18:20 | 21.66853 | 39.17241 | 30 ft | 2 kts | 249° |
| 2026-04-29 18:20 | 21.66850 | 39.17228 | 30 ft | 2 kts | 259° |
| 2026-04-29 18:20 | 21.66849 | 39.17216 | 30 ft | 2 kts | 265° |
| 2026-04-29 18:20 | 21.66849 | 39.17213 | 30 ft | 0 kts | 265° |